sensor_id;sensor_type;location;lat;lon;timestamp;pressure;altitude;pressure_sealevel;temperature;humidity
28448;BME280;15675;52.870;-1.416;2023-02-17T00:02:00;101074.19;;;12.72;100.00
28448;BME280;15675;52.870;-1.416;2023-02-17T00:04:28;101076.81;;;12.83;100.00
28448;BME280;15675;52.870;-1.416;2023-02-17T00:06:54;101075.06;;;12.90;100.00
28448;BME280;15675;52.870;-1.416;2023-02-17T00:09:19;101064.66;;;12.74;100.00
28448;BME280;15675;52.870;-1.416;2023-02-17T00:11:45;101068.13;;;12.64;100.00
28448;BME280;15675;52.870;-1.416;2023-02-17T00:14:12;101054.22;;;12.65;100.00
28448;BME280;15675;52.870;-1.416;2023-02-17T00:16:38;101048.13;;;12.69;100.00
28448;BME280;15675;52.870;-1.416;2023-02-17T00:19:04;101049.88;;;12.70;100.00
28448;BME280;15675;52.870;-1.416;2023-02-17T00:21:59;101048.13;;;12.69;100.00
28448;BME280;15675;52.870;-1.416;2023-02-17T00:24:27;101046.41;;;12.76;100.00
28448;BME280;15675;52.870;-1.416;2023-02-17T00:26:53;101022.09;;;12.51;100.00
28448;BME280;15675;52.870;-1.416;2023-02-17T00:29:19;101022.13;;;12.57;100.00
28448;BME280;15675;52.870;-1.416;2023-02-17T00:31:45;101047.28;;;12.50;100.00
28448;BME280;15675;52.870;-1.416;2023-02-17T00:34:11;101031.66;;;12.64;100.00
28448;BME280;15675;52.870;-1.416;2023-02-17T00:36:37;101040.34;;;12.68;100.00
28448;BME280;15675;52.870;-1.416;2023-02-17T00:39:05;101044.66;;;12.53;100.00
28448;BME280;15675;52.870;-1.416;2023-02-17T00:41:31;101029.91;;;12.48;100.00
28448;BME280;15675;52.870;-1.416;2023-02-17T00:43:58;101030.78;;;12.59;100.00
28448;BME280;15675;52.870;-1.416;2023-02-17T00:46:24;101029.91;;;12.68;100.00
28448;BME280;15675;52.870;-1.416;2023-02-17T00:48:49;101024.72;;;12.65;100.00
28448;BME280;15675;52.870;-1.416;2023-02-17T00:51:16;101020.34;;;12.50;100.00
28448;BME280;15675;52.870;-1.416;2023-02-17T00:53:42;101006.50;;;12.62;100.00
28448;BME280;15675;52.870;-1.416;2023-02-17T00:56:08;101001.25;;;12.52;100.00
28448;BME280;15675;52.870;-1.416;2023-02-17T00:58:34;101013.44;;;12.52;100.00
28448;BME280;15675;52.870;-1.416;2023-02-17T01:01:00;101011.69;;;12.60;100.00
28448;BME280;15675;52.870;-1.416;2023-02-17T01:03:26;101006.47;;;12.66;100.00
28448;BME280;15675;52.870;-1.416;2023-02-17T01:05:52;101004.75;;;12.54;100.00
28448;BME280;15675;52.870;-1.416;2023-02-17T01:08:20;101005.63;;;12.50;100.00
28448;BME280;15675;52.870;-1.416;2023-02-17T01:10:46;101014.28;;;12.54;100.00
28448;BME280;15675;52.870;-1.416;2023-02-17T01:13:14;101000.41;;;12.52;100.00
28448;BME280;15675;52.870;-1.416;2023-02-17T01:15:41;101004.72;;;12.65;100.00
28448;BME280;15675;52.870;-1.416;2023-02-17T01:18:07;101002.13;;;12.64;100.00
28448;BME280;15675;52.870;-1.416;2023-02-17T01:20:34;101016.88;;;12.54;100.00
28448;BME280;15675;52.870;-1.416;2023-02-17T01:23:00;101003.00;;;12.70;100.00
28448;BME280;15675;52.870;-1.416;2023-02-17T01:25:26;101015.16;;;12.77;100.00
28448;BME280;15675;52.870;-1.416;2023-02-17T01:27:52;101021.25;;;12.69;100.00
28448;BME280;15675;52.870;-1.416;2023-02-17T01:30:18;101021.22;;;12.56;100.00
28448;BME280;15675;52.870;-1.416;2023-02-17T01:32:44;101014.28;;;12.54;100.00
28448;BME280;15675;52.870;-1.416;2023-02-17T01:35:09;101027.31;;;12.80;100.00
28448;BME280;15675;52.870;-1.416;2023-02-17T01:37:35;101009.97;;;12.56;100.00
28448;BME280;15675;52.870;-1.416;2023-02-17T01:40:00;101022.09;;;12.78;100.00
28448;BME280;15675;52.870;-1.416;2023-02-17T01:42:26;101022.06;;;12.91;100.00
28448;BME280;15675;52.870;-1.416;2023-02-17T01:50:09;101017.75;;;12.82;100.00
28448;BME280;15675;52.870;-1.416;2023-02-17T01:52:35;101026.44;;;12.92;100.00
28448;BME280;15675;52.870;-1.416;2023-02-17T01:55:13;101036.00;;;12.90;100.00
28448;BME280;15675;52.870;-1.416;2023-02-17T01:57:42;101027.31;;;12.66;100.00
28448;BME280;15675;52.870;-1.416;2023-02-17T02:00:11;101041.19;;;12.87;100.00
28448;BME280;15675;52.870;-1.416;2023-02-17T02:02:38;101045.53;;;12.89;100.00
28448;BME280;15675;52.870;-1.416;2023-02-17T02:05:06;101045.56;;;12.80;100.00
28448;BME280;15675;52.870;-1.416;2023-02-17T02:07:37;101039.44;;;12.92;100.00
28448;BME280;15675;52.870;-1.416;2023-02-17T02:10:05;101038.59;;;12.76;100.00
28448;BME280;15675;52.870;-1.416;2023-02-17T02:12:35;101042.06;;;12.92;100.00
28448;BME280;15675;52.870;-1.416;2023-02-17T02:33:58;101008.19;;;12.80;100.00
28448;BME280;15675;52.870;-1.416;2023-02-17T02:36:42;100999.50;;;12.87;100.00
28448;BME280;15675;52.870;-1.416;2023-02-17T02:39:14;100975.25;;;12.60;100.00
28448;BME280;15675;52.870;-1.416;2023-02-17T02:41:45;100980.44;;;12.63;100.00
28448;BME280;15675;52.870;-1.416;2023-02-17T02:44:14;100964.84;;;12.45;100.00
28448;BME280;15675;52.870;-1.416;2023-02-17T02:46:40;100964.84;;;12.45;100.00
28448;BME280;15675;52.870;-1.416;2023-02-17T02:49:06;100969.19;;;12.47;100.00
28448;BME280;15675;52.870;-1.416;2023-02-17T02:56:52;100955.28;;;12.28;100.00
28448;BME280;15675;52.870;-1.416;2023-02-17T03:04:49;100953.56;;;12.32;100.00
28448;BME280;15675;52.870;-1.416;2023-02-17T03:07:20;100954.41;;;12.14;100.00
28448;BME280;15675;52.870;-1.416;2023-02-17T03:09:51;100967.38;;;12.00;100.00
28448;BME280;15675;52.870;-1.416;2023-02-17T03:12:20;100979.56;;;12.13;100.00
28448;BME280;15675;52.870;-1.416;2023-02-17T03:15:13;100978.66;;;12.06;100.00
28448;BME280;15675;52.870;-1.416;2023-02-17T03:17:37;100976.97;;;12.16;100.00
28448;BME280;15675;52.870;-1.416;2023-02-17T03:20:04;100983.91;;;12.28;100.00
28448;BME280;15675;52.870;-1.416;2023-02-17T03:22:39;100987.38;;;12.30;100.00
28448;BME280;15675;52.870;-1.416;2023-02-17T03:25:06;100987.38;;;12.15;100.00
28448;BME280;15675;52.870;-1.416;2023-02-17T03:27:32;100979.53;;;11.96;100.00
28448;BME280;15675;52.870;-1.416;2023-02-17T03:29:57;100980.44;;;12.21;100.00
28448;BME280;15675;52.870;-1.416;2023-02-17T03:32:23;100991.72;;;12.28;100.00
28448;BME280;15675;52.870;-1.416;2023-02-17T03:34:49;100987.38;;;12.35;100.00
28448;BME280;15675;52.870;-1.416;2023-02-17T03:37:14;100981.28;;;12.30;100.00
28448;BME280;15675;52.870;-1.416;2023-02-17T03:39:40;100957.84;;;12.05;100.00
28448;BME280;15675;52.870;-1.416;2023-02-17T03:42:05;100955.28;;;12.28;100.00
28448;BME280;15675;52.870;-1.416;2023-02-17T03:44:31;100950.06;;;12.05;100.00
28448;BME280;15675;52.870;-1.416;2023-02-17T03:46:56;100950.94;;;12.15;100.00
28448;BME280;15675;52.870;-1.416;2023-02-17T03:49:22;100946.59;;;12.12;100.00
28448;BME280;15675;52.870;-1.416;2023-02-17T03:51:47;100940.50;;;11.99;100.00
28448;BME280;15675;52.870;-1.416;2023-02-17T03:54:13;100939.63;;;11.94;100.00
28448;BME280;15675;52.870;-1.416;2023-02-17T03:56:38;100949.16;;;11.98;100.00
28448;BME280;15675;52.870;-1.416;2023-02-17T03:59:04;100938.72;;;11.92;100.00
28448;BME280;15675;52.870;-1.416;2023-02-17T04:01:29;100944.84;;;11.96;100.00
28448;BME280;15675;52.870;-1.416;2023-02-17T04:03:55;100942.19;;;11.91;100.00
28448;BME280;15675;52.870;-1.416;2023-02-17T04:06:21;100947.38;;;11.88;100.00
28448;BME280;15675;52.870;-1.416;2023-02-17T04:08:46;100923.13;;;11.86;100.00
28448;BME280;15675;52.870;-1.416;2023-02-17T04:11:12;100929.19;;;11.89;100.00
28448;BME280;15675;52.870;-1.416;2023-02-17T04:13:37;100930.97;;;12.11;100.00
28448;BME280;15675;52.870;-1.416;2023-02-17T04:16:06;100927.50;;;12.04;100.00
28448;BME280;15675;52.870;-1.416;2023-02-17T04:18:33;100933.56;;;12.00;100.00
28448;BME280;15675;52.870;-1.416;2023-02-17T04:20:59;100943.94;;;11.92;100.00
28448;BME280;15675;52.870;-1.416;2023-02-17T04:23:25;100930.97;;;12.15;100.00
28448;BME280;15675;52.870;-1.416;2023-02-17T04:25:51;100935.31;;;12.12;100.00
28448;BME280;15675;52.870;-1.416;2023-02-17T04:28:17;100924.91;;;12.18;100.00
28448;BME280;15675;52.870;-1.416;2023-02-17T04:30:44;100928.38;;;12.04;100.00
28448;BME280;15675;52.870;-1.416;2023-02-17T04:33:11;100921.44;;;12.08;100.00
28448;BME280;15675;52.870;-1.416;2023-02-17T04:35:36;100933.59;;;12.07;100.00
28448;BME280;15675;52.870;-1.416;2023-02-17T04:38:02;100922.31;;;12.15;100.00
28448;BME280;15675;52.870;-1.416;2023-02-17T04:40:27;100924.91;;;12.19;100.00
28448;BME280;15675;52.870;-1.416;2023-02-17T04:42:53;100921.44;;;12.00;100.00
28448;BME280;15675;52.870;-1.416;2023-02-17T04:45:18;100911.88;;;12.07;100.00
28448;BME280;15675;52.870;-1.416;2023-02-17T04:47:44;100919.69;;;12.05;100.00
28448;BME280;15675;52.870;-1.416;2023-02-17T04:50:10;100923.19;;;12.09;100.00
28448;BME280;15675;52.870;-1.416;2023-02-17T04:52:36;100913.66;;;12.20;100.00
28448;BME280;15675;52.870;-1.416;2023-02-17T04:55:02;100898.00;;;12.09;100.00
28448;BME280;15675;52.870;-1.416;2023-02-17T04:57:28;100908.44;;;12.08;100.00
28448;BME280;15675;52.870;-1.416;2023-02-17T04:59:54;100910.16;;;12.37;100.00
28448;BME280;15675;52.870;-1.416;2023-02-17T05:02:19;100907.53;;;12.37;100.00
28448;BME280;15675;52.870;-1.416;2023-02-17T05:04:45;100901.50;;;12.19;100.00
28448;BME280;15675;52.870;-1.416;2023-02-17T05:07:10;100884.16;;;12.21;100.00
28448;BME280;15675;52.870;-1.416;2023-02-17T05:09:36;100885.00;;;12.13;100.00
28448;BME280;15675;52.870;-1.416;2023-02-17T05:12:01;100899.75;;;12.26;100.00
28448;BME280;15675;52.870;-1.416;2023-02-17T05:14:28;100914.47;;;12.67;100.00
28448;BME280;15675;52.870;-1.416;2023-02-17T05:16:53;100894.56;;;12.24;100.00
28448;BME280;15675;52.870;-1.416;2023-02-17T05:19:19;100887.59;;;12.13;100.00
28448;BME280;15675;52.870;-1.416;2023-02-17T05:21:44;100883.28;;;12.21;100.00
28448;BME280;15675;52.870;-1.416;2023-02-17T05:24:10;100893.66;;;12.39;100.00
28448;BME280;15675;52.870;-1.416;2023-02-17T05:26:35;100883.25;;;12.38;100.00
28448;BME280;15675;52.870;-1.416;2023-02-17T05:29:01;100880.63;;;12.53;100.00
28448;BME280;15675;52.870;-1.416;2023-02-17T05:31:27;100872.84;;;12.46;100.00
28448;BME280;15675;52.870;-1.416;2023-02-17T05:33:53;100880.66;;;12.41;100.00
28448;BME280;15675;52.870;-1.416;2023-02-17T05:36:19;100886.72;;;12.51;100.00
28448;BME280;15675;52.870;-1.416;2023-02-17T05:38:45;100876.31;;;12.35;100.00
28448;BME280;15675;52.870;-1.416;2023-02-17T05:41:14;100885.88;;;12.47;100.00
28448;BME280;15675;52.870;-1.416;2023-02-17T05:43:40;100872.00;;;12.13;100.00
28448;BME280;15675;52.870;-1.416;2023-02-17T05:46:06;100873.75;;;12.24;100.00
28448;BME280;15675;52.870;-1.416;2023-02-17T05:48:32;100869.41;;;12.09;100.00
28448;BME280;15675;52.870;-1.416;2023-02-17T05:50:58;100884.16;;;12.40;100.00
28448;BME280;15675;52.870;-1.416;2023-02-17T05:53:23;100878.97;;;12.21;100.00
28448;BME280;15675;52.870;-1.416;2023-02-17T05:55:49;100877.19;;;12.28;100.00
28448;BME280;15675;52.870;-1.416;2023-02-17T05:58:15;100861.59;;;12.11;100.00
28448;BME280;15675;52.870;-1.416;2023-02-17T06:00:40;100873.72;;;12.28;100.00
28448;BME280;15675;52.870;-1.416;2023-02-17T06:03:06;100855.53;;;12.14;100.00
28448;BME280;15675;52.870;-1.416;2023-02-17T06:05:31;100829.50;;;12.26;100.00
28448;BME280;15675;52.870;-1.416;2023-02-17T06:07:57;100868.53;;;12.24;100.00
28448;BME280;15675;52.870;-1.416;2023-02-17T06:10:22;100869.41;;;12.25;100.00
28448;BME280;15675;52.870;-1.416;2023-02-17T06:12:48;100863.31;;;12.28;100.00
28448;BME280;15675;52.870;-1.416;2023-02-17T06:15:14;100865.06;;;12.22;100.00
28448;BME280;15675;52.870;-1.416;2023-02-17T06:17:39;100875.47;;;12.33;100.00
28448;BME280;15675;52.870;-1.416;2023-02-17T06:20:06;100867.69;;;12.12;100.00
28448;BME280;15675;52.870;-1.416;2023-02-17T06:22:32;100848.59;;;12.00;100.00
28448;BME280;15675;52.870;-1.416;2023-02-17T06:24:57;100859.84;;;12.18;100.00
28448;BME280;15675;52.870;-1.416;2023-02-17T06:27:23;100852.94;;;12.11;100.00
28448;BME280;15675;52.870;-1.416;2023-02-17T06:29:49;100862.47;;;11.99;100.00
28448;BME280;15675;52.870;-1.416;2023-02-17T06:32:15;100869.41;;;12.02;100.00
28448;BME280;15675;52.870;-1.416;2023-02-17T06:34:40;100862.47;;;12.08;100.00
28448;BME280;15675;52.870;-1.416;2023-02-17T06:37:06;100910.16;;;12.32;100.00
28448;BME280;15675;52.870;-1.416;2023-02-17T06:39:32;100899.72;;;12.52;100.00
28448;BME280;15675;52.870;-1.416;2023-02-17T06:41:57;100901.44;;;12.59;100.00
28448;BME280;15675;52.870;-1.416;2023-02-17T06:44:23;100911.00;;;12.48;100.00
28448;BME280;15675;52.870;-1.416;2023-02-17T06:46:48;100910.16;;;12.48;100.00
28448;BME280;15675;52.870;-1.416;2023-02-17T06:49:14;100902.38;;;12.23;100.00
28448;BME280;15675;52.870;-1.416;2023-02-17T06:51:40;100912.75;;;12.35;100.00
28448;BME280;15675;52.870;-1.416;2023-02-17T06:54:05;100894.56;;;12.40;100.00
28448;BME280;15675;52.870;-1.416;2023-02-17T06:56:31;100888.47;;;12.36;100.00
28448;BME280;15675;52.870;-1.416;2023-02-17T06:58:57;100904.97;;;12.40;100.00
28448;BME280;15675;52.870;-1.416;2023-02-17T07:01:24;100872.88;;;12.15;100.00
28448;BME280;15675;52.870;-1.416;2023-02-17T07:03:54;100870.25;;;12.33;100.00
28448;BME280;15675;52.870;-1.416;2023-02-17T07:06:20;100891.06;;;12.21;100.00
28448;BME280;15675;52.870;-1.416;2023-02-17T07:08:47;100887.63;;;12.36;100.00
28448;BME280;15675;52.870;-1.416;2023-02-17T07:11:13;100840.78;;;12.14;100.00
28448;BME280;15675;52.870;-1.416;2023-02-17T07:13:40;100885.03;;;12.19;100.00
28448;BME280;15675;52.870;-1.416;2023-02-17T07:16:06;100886.75;;;12.09;100.00
28448;BME280;15675;52.870;-1.416;2023-02-17T07:18:32;100878.94;;;12.29;100.00
28448;BME280;15675;52.870;-1.416;2023-02-17T07:20:58;100878.94;;;12.24;100.00
28448;BME280;15675;52.870;-1.416;2023-02-17T07:23:24;100878.06;;;12.16;100.00
28448;BME280;15675;52.870;-1.416;2023-02-17T07:25:49;100861.59;;;12.25;100.00
28448;BME280;15675;52.870;-1.416;2023-02-17T07:28:15;100872.88;;;12.18;100.00
28448;BME280;15675;52.870;-1.416;2023-02-17T07:30:41;100869.38;;;12.13;100.00
28448;BME280;15675;52.870;-1.416;2023-02-17T07:33:08;100841.63;;;12.24;100.00
28448;BME280;15675;52.870;-1.416;2023-02-17T07:35:34;100872.00;;;12.17;100.00
28448;BME280;15675;52.870;-1.416;2023-02-17T07:38:00;100877.19;;;12.39;100.00
28448;BME280;15675;52.870;-1.416;2023-02-17T07:40:26;100890.19;;;12.43;100.00
28448;BME280;15675;52.870;-1.416;2023-02-17T07:42:53;100865.94;;;12.23;100.00
28448;BME280;15675;52.870;-1.416;2023-02-17T07:45:18;100869.41;;;12.22;100.00
28448;BME280;15675;52.870;-1.416;2023-02-17T07:47:44;100867.66;;;12.22;100.00
28448;BME280;15675;52.870;-1.416;2023-02-17T07:50:10;100890.19;;;12.47;100.00
28448;BME280;15675;52.870;-1.416;2023-02-17T07:52:36;100872.84;;;12.36;100.00
28448;BME280;15675;52.870;-1.416;2023-02-17T07:55:02;100846.84;;;12.30;100.00
28448;BME280;15675;52.870;-1.416;2023-02-17T07:57:29;100874.56;;;12.48;100.00
28448;BME280;15675;52.870;-1.416;2023-02-17T07:59:55;100873.72;;;12.45;100.00
28448;BME280;15675;52.870;-1.416;2023-02-17T08:02:20;100864.19;;;12.30;100.00
28448;BME280;15675;52.870;-1.416;2023-02-17T08:04:46;100874.63;;;12.17;100.00
28448;BME280;15675;52.870;-1.416;2023-02-17T08:07:12;100863.31;;;12.28;100.00
28448;BME280;15675;52.870;-1.416;2023-02-17T08:09:38;100892.81;;;12.31;100.00
28448;BME280;15675;52.870;-1.416;2023-02-17T08:12:22;100902.38;;;12.24;100.00
28448;BME280;15675;52.870;-1.416;2023-02-17T08:15:08;100906.69;;;12.22;100.00
28448;BME280;15675;52.870;-1.416;2023-02-17T08:17:35;100917.09;;;12.38;100.00
28448;BME280;15675;52.870;-1.416;2023-02-17T08:20:00;100923.16;;;12.35;100.00
28448;BME280;15675;52.870;-1.416;2023-02-17T08:22:26;100931.84;;;12.57;100.00
28448;BME280;15675;52.870;-1.416;2023-02-17T08:24:51;100910.13;;;12.63;100.00
28448;BME280;15675;52.870;-1.416;2023-02-17T08:27:18;100931.84;;;12.56;100.00
28448;BME280;15675;52.870;-1.416;2023-02-17T08:29:44;100923.16;;;12.51;100.00
28448;BME280;15675;52.870;-1.416;2023-02-17T08:32:10;100936.19;;;12.49;100.00
28448;BME280;15675;52.870;-1.416;2023-02-17T08:34:35;100942.25;;;12.74;100.00
28448;BME280;15675;52.870;-1.416;2023-02-17T08:37:03;100938.78;;;12.66;100.00
28448;BME280;15675;52.870;-1.416;2023-02-17T08:39:28;100934.44;;;12.60;100.00
28448;BME280;15675;52.870;-1.416;2023-02-17T08:41:54;100931.84;;;12.50;100.00
28448;BME280;15675;52.870;-1.416;2023-02-17T08:44:20;100928.38;;;12.46;100.00
28448;BME280;15675;52.870;-1.416;2023-02-17T08:46:48;100955.28;;;12.54;100.00
28448;BME280;15675;52.870;-1.416;2023-02-17T08:49:15;100913.59;;;12.60;100.00
28448;BME280;15675;52.870;-1.416;2023-02-17T08:51:41;100929.22;;;12.74;100.00
28448;BME280;15675;52.870;-1.416;2023-02-17T08:54:08;100928.34;;;12.68;100.00
28448;BME280;15675;52.870;-1.416;2023-02-17T08:56:37;100918.81;;;12.65;100.00
28448;BME280;15675;52.870;-1.416;2023-02-17T08:59:05;100944.00;;;12.63;100.00
28448;BME280;15675;52.870;-1.416;2023-02-17T09:01:31;100933.59;;;12.58;100.00
28448;BME280;15675;52.870;-1.416;2023-02-17T09:03:57;100892.81;;;12.51;100.00
28448;BME280;15675;52.870;-1.416;2023-02-17T09:06:30;100920.56;;;12.51;100.00
28448;BME280;15675;52.870;-1.416;2023-02-17T09:08:55;100936.16;;;12.65;100.00
28448;BME280;15675;52.870;-1.416;2023-02-17T09:11:21;100930.13;;;12.52;100.00
28448;BME280;15675;52.870;-1.416;2023-02-17T09:13:48;100936.19;;;12.52;100.00
28448;BME280;15675;52.870;-1.416;2023-02-17T09:16:13;100944.00;;;12.57;100.00
28448;BME280;15675;52.870;-1.416;2023-02-17T09:18:39;100911.00;;;12.71;100.00
28448;BME280;15675;52.870;-1.416;2023-02-17T09:21:06;100911.84;;;12.70;100.00
28448;BME280;15675;52.870;-1.416;2023-02-17T09:23:33;100904.03;;;12.63;100.00
28448;BME280;15675;52.870;-1.416;2023-02-17T09:26:04;100896.22;;;12.61;100.00
28448;BME280;15675;52.870;-1.416;2023-02-17T09:28:30;100897.97;;;12.68;100.00
28448;BME280;15675;52.870;-1.416;2023-02-17T09:30:56;100905.78;;;12.50;100.00
28448;BME280;15675;52.870;-1.416;2023-02-17T09:33:22;100907.53;;;12.66;100.00
28448;BME280;15675;52.870;-1.416;2023-02-17T09:35:47;100920.56;;;12.60;100.00
28448;BME280;15675;52.870;-1.416;2023-02-17T09:38:14;100917.06;;;12.63;100.00
28448;BME280;15675;52.870;-1.416;2023-02-17T09:40:48;100900.56;;;12.68;100.00
28448;BME280;15675;52.870;-1.416;2023-02-17T09:43:16;100923.09;;;12.85;100.00
28448;BME280;15675;52.870;-1.416;2023-02-17T09:45:52;100902.31;;;12.68;100.00
28448;BME280;15675;52.870;-1.416;2023-02-17T09:48:23;100881.50;;;12.65;100.00
28448;BME280;15675;52.870;-1.416;2023-02-17T09:50:56;100877.97;;;12.76;100.00
28448;BME280;15675;52.870;-1.416;2023-02-17T09:53:34;100923.97;;;12.88;100.00
28448;BME280;15675;52.870;-1.416;2023-02-17T09:56:05;100918.72;;;13.02;100.00
28448;BME280;15675;52.870;-1.416;2023-02-17T09:58:33;100907.47;;;12.88;100.00
28448;BME280;15675;52.870;-1.416;2023-02-17T10:01:07;100928.19;;;13.22;100.00
28448;BME280;15675;52.870;-1.416;2023-02-17T10:03:41;100882.91;;;13.51;100.00
28448;BME280;15675;52.870;-1.416;2023-02-17T10:06:13;100883.09;;;12.98;100.00
28448;BME280;15675;52.870;-1.416;2023-02-17T10:08:47;100893.41;;;13.29;100.00
28448;BME280;15675;52.870;-1.416;2023-02-17T10:14:08;100859.44;;;13.49;100.00
28448;BME280;15675;52.870;-1.416;2023-02-17T10:16:46;100858.69;;;13.28;100.00
28448;BME280;15675;52.870;-1.416;2023-02-17T10:19:18;100871.69;;;13.35;100.00
28448;BME280;15675;52.870;-1.416;2023-02-17T10:22:04;100898.47;;;13.64;100.00
28448;BME280;15675;52.870;-1.416;2023-02-17T10:24:31;100918.47;;;13.66;100.00
28448;BME280;15675;52.870;-1.416;2023-02-17T10:27:06;100891.66;;;13.34;100.00
28448;BME280;15675;52.870;-1.416;2023-02-17T10:29:49;100917.69;;;13.50;100.00
28448;BME280;15675;52.870;-1.416;2023-02-17T10:32:23;100909.78;;;13.63;100.00
28448;BME280;15675;52.870;-1.416;2023-02-17T10:37:49;100954.88;;;13.86;100.00
28448;BME280;15675;52.870;-1.416;2023-02-17T10:40:21;100942.66;;;13.88;100.00
28448;BME280;15675;52.870;-1.416;2023-02-17T10:42:54;100935.84;;;13.70;100.00
28448;BME280;15675;52.870;-1.416;2023-02-17T10:48:03;100905.38;;;13.73;100.00
28448;BME280;15675;52.870;-1.416;2023-02-17T10:50:31;100925.38;;;13.74;100.00
28448;BME280;15675;52.870;-1.416;2023-02-17T10:52:56;100954.03;;;13.77;100.00
28448;BME280;15675;52.870;-1.416;2023-02-17T10:55:34;100960.03;;;13.98;100.00
28448;BME280;15675;52.870;-1.416;2023-02-17T10:58:30;100966.19;;;13.81;100.00
28448;BME280;15675;52.870;-1.416;2023-02-17T11:00:58;100985.38;;;13.74;100.00
28448;BME280;15675;52.870;-1.416;2023-02-17T11:03:27;101001.94;;;13.61;100.00
28448;BME280;15675;52.870;-1.416;2023-02-17T11:06:01;100996.66;;;13.76;100.00
28448;BME280;15675;52.870;-1.416;2023-02-17T11:11:15;101008.88;;;13.71;100.00
28448;BME280;15675;52.870;-1.416;2023-02-17T11:13:43;101034.03;;;13.78;100.00
28448;BME280;15675;52.870;-1.416;2023-02-17T11:16:23;101021.94;;;13.62;100.00
28448;BME280;15675;52.870;-1.416;2023-02-17T11:18:51;101051.50;;;13.59;100.00
28448;BME280;15675;52.870;-1.416;2023-02-17T11:21:17;101028.88;;;13.66;100.00
28448;BME280;15675;52.870;-1.416;2023-02-17T11:24:03;101035.84;;;13.62;100.00
28448;BME280;15675;52.870;-1.416;2023-02-17T11:26:31;101038.44;;;13.66;100.00
28448;BME280;15675;52.870;-1.416;2023-02-17T11:31:33;101065.22;;;14.05;100.00
28448;BME280;15675;52.870;-1.416;2023-02-17T11:34:10;101020.06;;;13.89;100.00
28448;BME280;15675;52.870;-1.416;2023-02-17T11:36:35;101049.50;;;14.17;100.00
28448;BME280;15675;52.870;-1.416;2023-02-17T11:39:16;101072.28;;;13.83;100.00
28448;BME280;15675;52.870;-1.416;2023-02-17T11:41:42;101078.28;;;14.02;100.00
28448;BME280;15675;52.870;-1.416;2023-02-17T11:44:08;101030.47;;;13.95;100.00
28448;BME280;15675;52.870;-1.416;2023-02-17T11:46:43;101071.38;;;13.94;100.00
28448;BME280;15675;52.870;-1.416;2023-02-17T11:52:18;101086.22;;;13.81;100.00
28448;BME280;15675;52.870;-1.416;2023-02-17T11:58:15;101102.34;;;14.62;100.00
28448;BME280;15675;52.870;-1.416;2023-02-17T12:06:21;101127.84;;;14.06;100.00
28448;BME280;15675;52.870;-1.416;2023-02-17T12:15:07;101145.13;;;14.37;100.00
28448;BME280;15675;52.870;-1.416;2023-02-17T12:23:30;101142.66;;;14.03;100.00
28448;BME280;15675;52.870;-1.416;2023-02-17T12:34:43;101193.94;;;14.14;100.00
28448;BME280;15675;52.870;-1.416;2023-02-17T12:37:19;101179.19;;;14.04;100.00
28448;BME280;15675;52.870;-1.416;2023-02-17T12:39:54;101187.75;;;14.39;99.14
28448;BME280;15675;52.870;-1.416;2023-02-17T12:42:24;101206.06;;;14.32;96.99
28448;BME280;15675;52.870;-1.416;2023-02-17T12:48:00;101232.09;;;14.53;95.77
28448;BME280;15675;52.870;-1.416;2023-02-17T12:50:35;101227.72;;;14.64;95.04
28448;BME280;15675;52.870;-1.416;2023-02-17T12:53:10;101251.31;;;14.36;93.25
28448;BME280;15675;52.870;-1.416;2023-02-17T12:55:43;101266.13;;;14.25;93.89
28448;BME280;15675;52.870;-1.416;2023-02-17T12:58:19;101257.47;;;14.12;93.89
28448;BME280;15675;52.870;-1.416;2023-02-17T13:00:49;101274.03;;;14.11;93.04
28448;BME280;15675;52.870;-1.416;2023-02-17T13:03:17;101262.69;;;14.10;92.89
28448;BME280;15675;52.870;-1.416;2023-02-17T13:06:18;101281.78;;;14.25;91.93
28448;BME280;15675;52.870;-1.416;2023-02-17T13:08:57;101289.56;;;14.43;90.25
28448;BME280;15675;52.870;-1.416;2023-02-17T13:11:32;101303.53;;;14.35;87.94
28448;BME280;15675;52.870;-1.416;2023-02-17T13:14:24;101285.25;;;14.44;87.08
28448;BME280;15675;52.870;-1.416;2023-02-17T13:16:50;101296.59;;;14.29;86.82
28448;BME280;15675;52.870;-1.416;2023-02-17T13:19:26;101299.88;;;14.93;86.71
28448;BME280;15675;52.870;-1.416;2023-02-17T13:21:54;101313.91;;;14.55;84.32
28448;BME280;15675;52.870;-1.416;2023-02-17T13:27:29;101306.94;;;14.58;83.46
28448;BME280;15675;52.870;-1.416;2023-02-17T13:32:32;101313.00;;;14.74;84.10
28448;BME280;15675;52.870;-1.416;2023-02-17T13:35:10;101315.66;;;14.59;84.83
28448;BME280;15675;52.870;-1.416;2023-02-17T13:37:44;101326.03;;;14.80;86.25
28448;BME280;15675;52.870;-1.416;2023-02-17T13:42:50;101331.28;;;14.79;89.04
28448;BME280;15675;52.870;-1.416;2023-02-17T13:45:32;101326.09;;;14.65;89.04
28448;BME280;15675;52.870;-1.416;2023-02-17T13:48:11;101329.56;;;14.78;90.18
28448;BME280;15675;52.870;-1.416;2023-02-17T13:50:44;101304.28;;;14.80;88.65
28448;BME280;15675;52.870;-1.416;2023-02-17T13:55:45;101337.41;;;14.56;86.45
28448;BME280;15675;52.870;-1.416;2023-02-17T13:58:10;101316.50;;;14.72;85.95
28448;BME280;15675;52.870;-1.416;2023-02-17T14:00:36;101337.41;;;14.72;85.98
28448;BME280;15675;52.870;-1.416;2023-02-17T14:03:17;101325.25;;;14.55;86.46
28448;BME280;15675;52.870;-1.416;2023-02-17T14:05:45;101347.84;;;14.75;86.97
28448;BME280;15675;52.870;-1.416;2023-02-17T14:08:16;101350.53;;;14.39;87.95
28448;BME280;15675;52.870;-1.416;2023-02-17T14:10:43;101344.41;;;14.45;90.20
28448;BME280;15675;52.870;-1.416;2023-02-17T14:13:10;101367.09;;;14.09;94.09